Terminal Aerodrome Forecast
Issued by NWS

Home | Current Version | Previous Version | Graphics & Text | Print | Product List | Glossary On
Versions: 1 2 3 4 5 6 7 8 9 10 11 12 13 14 15 16 17
525
FTUS43 KBIS 062327
TAFJMS
TAF
KJMS 062327Z 0700/0724 30030G40KT 3/4SM -SN BLSN OVC015
      TEMPO 0700/0704 1/4SM -SN BLSN OVC008
     FM070600 30029G38KT 1SM BLSN OVC018
     FM071200 30026KT 2SM BLSN OVC020
     FM071600 30023KT P6SM OVC020=

USA.gov is the U.S. government's official web portal to all federal, state and local government web resources and services.